Time;durP1;ratioP1;P1;durP2;ratioP2;P2;SDS_P1;SDS_P2;PMS_P1;PMS_P2;Temp;Humidity;BMP_temperature;BMP_pressure;BME280_temperature;BME280_humidity;BME280_pressure;Samples;Min_cycle;Max_cycle;Signal;HPM_P1;HPM_P2
2023/03/22 00:00:47;;;;;;;11.15;10.05;;;23.60;70.60;;;;;;6065885;28;88000;-67
2023/03/22 00:03:50;;;;;;;12.75;11.38;;;23.60;70.60;;;;;;6060715;28;88538;-67
2023/03/22 00:06:52;;;;;;;13.05;11.65;;;23.50;70.60;;;;;;6069564;28;88556;-67
2023/03/22 00:09:54;;;;;;;12.55;11.32;;;23.50;70.60;;;;;;6064909;28;89052;-66
2023/03/22 00:12:57;;;;;;;12.07;10.88;;;23.50;70.60;;;;;;6057711;28;90006;-67
2023/03/22 00:16:01;;;;;;;12.50;11.20;;;23.50;70.60;;;;;;6059550;28;89198;-67
2023/03/22 00:19:03;;;;;;;12.13;10.95;;;23.50;70.60;;;;;;6066600;28;89136;-68
2023/03/22 00:22:05;;;;;;;12.20;11.00;;;23.50;70.60;;;;;;6064249;28;89570;-68
2023/03/22 00:25:08;;;;;;;12.57;11.32;;;23.50;70.60;;;;;;6065186;28;88834;-67
2023/03/22 00:28:12;;;;;;;12.02;10.82;;;23.40;70.60;;;;;;6060231;28;89438;-67
2023/03/22 00:31:14;;;;;;;12.57;11.27;;;23.50;70.70;;;;;;6059850;28;88312;-67
2023/03/22 00:34:16;;;;;;;13.43;12.13;;;23.40;70.60;;;;;;6059798;28;88222;-67
2023/03/22 00:37:18;;;;;;;12.85;11.45;;;23.40;70.60;;;;;;6059958;28;89199;-67
2023/03/22 00:40:20;;;;;;;12.77;11.55;;;23.40;70.70;;;;;;6058569;28;89032;-67
2023/03/22 00:43:24;;;;;;;12.48;11.18;;;23.40;70.70;;;;;;6057913;28;89028;-67
2023/03/22 00:46:26;;;;;;;12.32;11.05;;;23.40;70.60;;;;;;6058796;28;89020;-68
2023/03/22 00:49:29;;;;;;;11.77;10.57;;;23.40;70.70;;;;;;6060988;28;89082;-67
2023/03/22 00:52:32;;;;;;;12.80;11.57;;;23.40;70.70;;;;;;6059166;28;87996;-67
2023/03/22 00:55:34;;;;;;;12.23;11.02;;;23.40;70.80;;;;;;6071856;28;89176;-67
2023/03/22 00:58:38;;;;;;;12.57;11.27;;;23.40;70.60;;;;;;6067019;28;88806;-67
2023/03/22 01:01:40;;;;;;;12.68;11.38;;;23.40;70.70;;;;;;6061789;28;89443;-67
2023/03/22 01:04:45;;;;;;;12.75;11.45;;;23.40;70.70;;;;;;6064599;28;88388;-67
2023/03/22 01:07:49;;;;;;;12.90;11.60;;;23.40;70.70;;;;;;6069134;28;89278;-67
2023/03/22 01:10:51;;;;;;;13.00;11.65;;;23.40;70.80;;;;;;6070043;28;89460;-67
2023/03/22 01:13:56;;;;;;;12.32;11.05;;;23.40;70.80;;;;;;6058175;28;89270;-66
2023/03/22 01:16:58;;;;;;;12.48;10.98;;;23.40;70.80;;;;;;6062259;28;89428;-67
2023/03/22 01:20:00;;;;;;;12.80;11.50;;;23.40;70.80;;;;;;6061701;28;89323;-67
2023/03/22 01:23:02;;;;;;;12.07;10.77;;;23.30;70.80;;;;;;6067785;28;89230;-67
2023/03/22 01:26:05;;;;;;;12.00;10.82;;;23.30;70.80;;;;;;6062963;28;88043;-67
2023/03/22 01:29:09;;;;;;;12.13;10.93;;;23.40;70.80;;;;;;6065500;28;89128;-67
2023/03/22 01:32:11;;;;;;;12.35;11.13;;;23.40;70.80;;;;;;6055850;28;89098;-67
2023/03/22 01:35:13;;;;;;;12.20;11.00;;;23.30;70.70;;;;;;6059311;28;88369;-67
2023/03/22 01:38:15;;;;;;;12.10;10.90;;;23.30;70.70;;;;;;6068608;28;89058;-67
2023/03/22 01:41:19;;;;;;;11.40;10.30;;;23.30;70.80;;;;;;6062086;28;89002;-67
2023/03/22 01:44:23;;;;;;;11.38;10.25;;;23.30;70.70;;;;;;6065679;28;88800;-67
2023/03/22 01:47:25;;;;;;;12.60;11.40;;;23.30;70.70;;;;;;6062820;28;89284;-67
2023/03/22 01:50:28;;;;;;;12.02;10.80;;;23.30;70.80;;;;;;6051774;28;89228;-67
2023/03/22 01:53:33;;;;;;;11.93;10.65;;;23.30;70.80;;;;;;6063257;28;89485;-67
2023/03/22 01:56:37;;;;;;;11.90;10.75;;;23.30;70.80;;;;;;6074621;28;88111;-67
2023/03/22 01:59:43;;;;;;;11.43;10.32;;;23.30;70.80;;;;;;6063857;28;88765;-67
2023/03/22 02:02:48;;;;;;;12.15;10.93;;;23.30;70.80;;;;;;6069502;28;89047;-67
2023/03/22 02:05:50;;;;;;;11.45;10.35;;;23.30;70.80;;;;;;6073603;28;88374;-67
2023/03/22 02:08:56;;;;;;;11.10;10.00;;;23.30;70.80;;;;;;6066714;28;87974;-67
2023/03/22 02:12:11;;;;;;;11.73;10.48;;;23.30;70.80;;;;;;6062826;28;87963;-67
2023/03/22 02:15:22;;;;;;;11.57;10.45;;;23.20;70.70;;;;;;6057454;28;89984;-67
2023/03/22 02:18:38;;;;;;;11.65;10.45;;;23.20;70.70;;;;;;6059016;28;88975;-66
2023/03/22 02:22:08;;;;;;;11.43;10.23;;;23.30;70.80;;;;;;6060018;28;89407;-67
2023/03/22 02:25:36;;;;;;;11.32;10.23;;;23.20;70.80;;;;;;6060756;28;89226;-67
2023/03/22 02:28:46;;;;;;;11.05;9.98;;;23.20;70.80;;;;;;6068609;28;89389;-67
2023/03/22 02:32:22;;;;;;;11.85;10.63;;;23.20;70.80;;;;;;6060776;28;90693;-66
2023/03/22 02:35:46;;;;;;;11.13;10.13;;;23.20;70.70;;;;;;6062063;28;89387;-68
2023/03/22 02:39:08;;;;;;;10.90;9.80;;;23.20;70.80;;;;;;6069086;28;87451;-68
2023/03/22 02:42:27;;;;;;;10.55;9.52;;;23.20;70.70;;;;;;6064318;28;89531;-67
2023/03/22 02:45:34;;;;;;;12.18;10.95;;;23.20;70.80;;;;;;6075018;28;89763;-67
2023/03/22 02:48:44;;;;;;;10.75;9.65;;;23.20;70.70;;;;;;6064550;28;90233;-67
2023/03/22 02:51:50;;;;;;;11.45;10.27;;;23.20;70.80;;;;;;6066424;28;89234;-67
2023/03/22 02:54:58;;;;;;;10.82;9.73;;;23.20;70.70;;;;;;6062219;28;89135;-67
2023/03/22 02:58:06;;;;;;;11.27;10.18;;;23.20;70.70;;;;;;6072201;28;89216;-67
2023/03/22 03:01:16;;;;;;;10.23;9.23;;;23.20;70.80;;;;;;6072032;28;89133;-66
2023/03/22 03:04:23;;;;;;;10.90;9.80;;;23.20;70.80;;;;;;6068186;28;89137;-67
2023/03/22 03:07:27;;;;;;;10.57;9.48;;;23.20;70.80;;;;;;6068163;28;89109;-67
2023/03/22 03:10:32;;;;;;;10.40;9.40;;;23.10;70.80;;;;;;6071213;28;88657;-67
2023/03/22 03:13:34;;;;;;;9.95;9.02;;;23.20;70.80;;;;;;6063423;28;88077;-68
2023/03/22 03:16:36;;;;;;;10.63;9.63;;;23.20;70.80;;;;;;6069221;28;89225;-68
2023/03/22 03:19:46;;;;;;;10.30;9.18;;;23.20;70.80;;;;;;6064326;28;88846;-68
2023/03/22 03:22:57;;;;;;;9.85;8.93;;;23.10;70.80;;;;;;6061151;28;89195;-67
2023/03/22 03:26:04;;;;;;;9.57;8.68;;;23.20;70.80;;;;;;6062803;28;89298;-67
2023/03/22 03:29:14;;;;;;;10.30;9.30;;;23.10;70.80;;;;;;6061032;28;89083;-67
2023/03/22 03:32:24;;;;;;;9.45;8.55;;;23.10;70.80;;;;;;6061845;28;89076;-67
2023/03/22 03:35:29;;;;;;;9.65;8.75;;;23.10;70.80;;;;;;6065887;28;89139;-67
2023/03/22 03:38:36;;;;;;;9.50;8.60;;;23.10;70.80;;;;;;6068638;28;89036;-67
2023/03/22 03:41:42;;;;;;;9.48;8.57;;;23.10;70.80;;;;;;6061185;28;87648;-67
2023/03/22 03:44:45;;;;;;;9.43;8.43;;;23.10;70.80;;;;;;6060161;28;89153;-67
2023/03/22 03:47:54;;;;;;;9.07;8.18;;;23.10;70.80;;;;;;6061097;28;89166;-67
2023/03/22 03:50:58;;;;;;;8.95;8.07;;;23.10;70.80;;;;;;6060243;28;90433;-67
2023/03/22 03:54:00;;;;;;;9.35;8.45;;;23.10;70.80;;;;;;6073005;28;89720;-67
2023/03/22 03:57:03;;;;;;;9.57;8.57;;;23.10;70.80;;;;;;6063801;28;89278;-67
2023/03/22 04:00:06;;;;;;;9.20;8.30;;;23.10;70.90;;;;;;6058198;28;89490;-66
2023/03/22 04:03:09;;;;;;;9.05;8.15;;;23.10;70.80;;;;;;6064386;28;89429;-67
2023/03/22 04:06:11;;;;;;;9.20;8.30;;;23.10;70.80;;;;;;6064384;28;89055;-67
2023/03/22 04:09:13;;;;;;;9.05;8.15;;;23.10;70.90;;;;;;6067389;28;89395;-67
2023/03/22 04:12:16;;;;;;;9.00;8.10;;;23.00;70.80;;;;;;6077756;28;88683;-67
2023/03/22 04:15:18;;;;;;;8.95;8.05;;;23.10;70.90;;;;;;6060892;28;89127;-67
2023/03/22 04:18:20;;;;;;;8.52;7.72;;;23.00;70.80;;;;;;6073182;28;89126;-68
2023/03/22 04:21:22;;;;;;;9.00;8.18;;;23.00;70.80;;;;;;6068747;28;90009;-68
2023/03/22 04:24:24;;;;;;;8.75;7.85;;;23.00;70.80;;;;;;6063702;28;89097;-66
2023/03/22 04:27:28;;;;;;;8.55;7.75;;;23.00;70.80;;;;;;6060668;28;89081;-67
2023/03/22 04:30:35;;;;;;;8.98;8.07;;;23.00;70.80;;;;;;6060523;28;89121;-66
2023/03/22 04:33:38;;;;;;;9.10;8.20;;;23.10;70.80;;;;;;6059669;28;89356;-67
2023/03/22 04:36:40;;;;;;;9.27;8.35;;;23.10;70.60;;;;;;6049367;28;89275;-67
2023/03/22 04:39:43;;;;;;;8.75;7.95;;;23.10;70.60;;;;;;6059734;28;89083;-67
2023/03/22 04:42:47;;;;;;;8.65;7.85;;;23.00;70.60;;;;;;6063537;28;88569;-66
2023/03/22 04:45:49;;;;;;;8.75;7.95;;;23.00;70.60;;;;;;6067691;28;89232;-66
2023/03/22 04:48:51;;;;;;;8.55;7.75;;;23.10;70.70;;;;;;6067144;28;89356;-67
2023/03/22 04:51:53;;;;;;;8.55;7.75;;;23.00;70.60;;;;;;6066521;28;89970;-67
2023/03/22 04:54:55;;;;;;;9.23;8.23;;;23.00;70.50;;;;;;6087817;28;89323;-67
2023/03/22 04:57:58;;;;;;;8.63;7.82;;;23.10;70.60;;;;;;6069318;28;89183;-67
2023/03/22 05:01:01;;;;;;;8.70;7.80;;;23.10;70.50;;;;;;6063783;28;89173;-67
2023/03/22 05:04:03;;;;;;;8.82;8.02;;;23.10;70.50;;;;;;6062540;28;89055;-67
2023/03/22 05:07:05;;;;;;;8.50;7.70;;;23.10;70.50;;;;;;6065228;28;89196;-67
2023/03/22 05:10:08;;;;;;;9.00;8.10;;;23.10;70.40;;;;;;6067157;28;89046;-67
2023/03/22 05:13:11;;;;;;;9.80;8.60;;;23.10;70.30;;;;;;6059275;28;88277;-66
2023/03/22 05:16:13;;;;;;;8.45;7.68;;;23.10;70.30;;;;;;6074182;28;88069;-67
2023/03/22 05:19:16;;;;;;;9.15;8.35;;;23.20;70.30;;;;;;6062871;28;88215;-67
2023/03/22 05:22:18;;;;;;;8.77;7.97;;;23.20;70.70;;;;;;6067161;28;88977;-67
2023/03/22 05:25:20;;;;;;;8.63;7.80;;;23.20;70.30;;;;;;6063536;28;89104;-67
2023/03/22 05:28:26;;;;;;;9.10;8.20;;;23.20;70.30;;;;;;6075482;28;89230;-67
2023/03/22 05:31:28;;;;;;;9.10;8.30;;;23.20;70.20;;;;;;6068713;28;89175;-67
2023/03/22 05:34:35;;;;;;;8.88;8.05;;;23.20;70.20;;;;;;6063895;28;89079;-67
2023/03/22 05:37:38;;;;;;;8.98;8.10;;;23.20;70.10;;;;;;6085406;28;89597;-67
2023/03/22 05:40:40;;;;;;;9.02;8.23;;;23.30;70.10;;;;;;6074189;28;94080;-67
2023/03/22 05:43:43;;;;;;;9.13;8.23;;;23.30;70.10;;;;;;6059606;28;93442;-67
2023/03/22 05:46:45;;;;;;;9.00;8.13;;;23.30;70.10;;;;;;6065783;28;94200;-67
2023/03/22 05:49:47;;;;;;;9.20;8.40;;;23.30;70.10;;;;;;6071667;28;94161;-67
2023/03/22 05:52:50;;;;;;;9.15;8.25;;;23.30;70.10;;;;;;6064111;28;93931;-67
2023/03/22 05:55:56;;;;;;;9.10;8.20;;;23.30;70.10;;;;;;6061449;28;94012;-67
2023/03/22 05:59:00;;;;;;;8.85;8.05;;;23.30;70.10;;;;;;6070130;28;94554;-67
2023/03/22 06:02:02;;;;;;;8.65;7.85;;;23.30;70.10;;;;;;6060870;28;94282;-67
2023/03/22 06:05:04;;;;;;;9.15;8.25;;;23.30;70.00;;;;;;6060194;28;94058;-68
2023/03/22 06:08:06;;;;;;;8.75;7.95;;;23.30;70.00;;;;;;6048920;28;94147;-67
2023/03/22 06:11:09;;;;;;;8.10;7.40;;;23.30;70.10;;;;;;6060709;28;94111;-67
2023/03/22 06:14:12;;;;;;;9.60;8.60;;;23.40;70.10;;;;;;6057408;28;93491;-66
2023/03/22 06:17:14;;;;;;;8.82;7.93;;;23.30;70.10;;;;;;6059291;28;94163;-67
2023/03/22 06:20:16;;;;;;;9.10;8.20;;;23.30;70.10;;;;;;6061323;28;94187;-67
2023/03/22 06:23:18;;;;;;;9.68;7.88;;;23.40;70.10;;;;;;6054321;28;95092;-67
2023/03/22 06:26:20;;;;;;;8.50;7.70;;;23.40;70.10;;;;;;6068749;28;94378;-67
2023/03/22 06:29:23;;;;;;;8.40;7.60;;;23.40;70.10;;;;;;6075553;28;94145;-67
2023/03/22 06:32:26;;;;;;;8.85;8.00;;;23.40;70.10;;;;;;6061733;28;94291;-67
2023/03/22 06:35:28;;;;;;;8.40;7.60;;;23.40;70.10;;;;;;6059439;28;94369;-67
2023/03/22 06:38:30;;;;;;;8.65;7.60;;;23.40;70.10;;;;;;6060090;28;94184;-67
2023/03/22 06:41:32;;;;;;;8.95;8.05;;;23.40;70.10;;;;;;6069832;28;94149;-67
2023/03/22 06:44:35;;;;;;;9.35;7.85;;;23.40;70.10;;;;;;6060955;28;93695;-67
2023/03/22 06:47:37;;;;;;;8.10;7.30;;;23.40;70.10;;;;;;6069272;28;94108;-67
2023/03/22 06:50:40;;;;;;;8.32;7.53;;;23.40;70.00;;;;;;6062126;28;94449;-67
2023/03/22 06:53:42;;;;;;;7.95;7.15;;;23.40;70.00;;;;;;6062441;28;96078;-67
2023/03/22 06:56:44;;;;;;;8.70;7.90;;;23.40;70.00;;;;;;6058407;28;94218;-66
2023/03/22 06:59:48;;;;;;;8.90;7.53;;;23.50;70.10;;;;;;6070390;28;94442;-67
2023/03/22 07:02:50;;;;;;;8.77;7.88;;;23.50;70.00;;;;;;6057430;28;94225;-67
2023/03/22 07:05:52;;;;;;;8.18;7.43;;;23.50;70.00;;;;;;6059155;28;94278;-67
2023/03/22 07:08:54;;;;;;;8.07;7.28;;;23.60;70.00;;;;;;6057969;28;95680;-67
2023/03/22 07:11:56;;;;;;;7.50;6.80;;;23.60;70.00;;;;;;6070825;28;94141;-67
2023/03/22 07:14:59;;;;;;;8.30;7.50;;;23.60;70.00;;;;;;6056650;28;93336;-67
2023/03/22 07:18:02;;;;;;;7.53;6.72;;;23.60;69.90;;;;;;6057985;28;94111;-67
2023/03/22 07:21:04;;;;;;;7.80;7.10;;;23.60;69.90;;;;;;6064490;28;94327;-67
2023/03/22 07:24:08;;;;;;;7.30;6.60;;;23.60;69.90;;;;;;6063435;28;95087;-67
2023/03/22 07:27:10;;;;;;;8.27;7.22;;;23.60;69.90;;;;;;6062744;28;94466;-67
2023/03/22 07:30:14;;;;;;;7.70;7.00;;;23.60;70.00;;;;;;6062184;28;94089;-67
2023/03/22 07:33:16;;;;;;;7.40;6.70;;;23.60;69.90;;;;;;6062860;28;94121;-67
2023/03/22 07:36:22;;;;;;;7.13;6.53;;;23.60;69.90;;;;;;6062557;28;94458;-67
2023/03/22 07:39:25;;;;;;;7.22;6.53;;;23.70;70.00;;;;;;6063092;28;93303;-66
2023/03/22 07:42:27;;;;;;;7.50;6.80;;;23.70;70.00;;;;;;6057634;28;94076;-67
2023/03/22 07:45:30;;;;;;;7.28;6.63;;;23.70;70.00;;;;;;6064774;28;93471;-67
2023/03/22 07:48:33;;;;;;;7.75;7.00;;;23.70;70.00;;;;;;6068164;28;94219;-67
2023/03/22 07:51:35;;;;;;;7.28;6.57;;;23.70;70.00;;;;;;6060508;28;94453;-67
2023/03/22 07:54:37;;;;;;;7.22;6.53;;;23.70;69.90;;;;;;6061452;28;95101;-67
2023/03/22 07:57:40;;;;;;;7.43;6.72;;;23.70;70.00;;;;;;6061136;28;94323;-67
2023/03/22 08:00:43;;;;;;;7.25;6.55;;;23.70;70.00;;;;;;6065219;28;94096;-67
2023/03/22 08:03:45;;;;;;;6.88;6.28;;;23.80;70.10;;;;;;6066423;28;94306;-67
2023/03/22 08:06:47;;;;;;;7.20;6.60;;;23.70;70.00;;;;;;6069567;28;94008;-67
2023/03/22 08:09:50;;;;;;;6.70;6.07;;;23.70;70.00;;;;;;6059579;28;94492;-67
2023/03/22 08:12:52;;;;;;;6.80;6.20;;;23.70;70.00;;;;;;6067329;28;94487;-67
2023/03/22 08:15:55;;;;;;;7.00;6.30;;;23.80;70.00;;;;;;6056147;28;93561;-66
2023/03/22 08:18:57;;;;;;;6.75;6.05;;;23.80;70.10;;;;;;6061799;28;95199;-66
2023/03/22 08:21:59;;;;;;;6.65;6.05;;;23.80;70.10;;;;;;6066897;28;94129;-67
2023/03/22 08:25:02;;;;;;;7.00;6.40;;;23.80;70.10;;;;;;6075651;28;95106;-67
2023/03/22 08:28:04;;;;;;;6.55;5.95;;;23.80;70.10;;;;;;6067289;28;94924;-68
2023/03/22 08:31:13;;;;;;;6.55;5.95;;;23.80;70.10;;;;;;6058844;28;94176;-67
2023/03/22 08:34:15;;;;;;;6.75;6.15;;;23.80;70.20;;;;;;6070694;28;94146;-67
2023/03/22 08:37:19;;;;;;;6.10;5.60;;;23.80;70.20;;;;;;6073874;28;94164;-67
2023/03/22 08:40:21;;;;;;;6.30;5.70;;;23.80;70.30;;;;;;6069517;28;94133;-67
2023/03/22 08:43:23;;;;;;;6.40;5.80;;;23.90;70.30;;;;;;6074193;28;94679;-67
2023/03/22 08:46:27;;;;;;;6.10;5.60;;;23.90;70.30;;;;;;6061267;28;93516;-67
2023/03/22 08:49:30;;;;;;;6.50;5.90;;;23.80;70.20;;;;;;6061694;28;94109;-67
2023/03/22 08:52:32;;;;;;;6.35;5.75;;;23.90;70.30;;;;;;6060349;28;94507;-67
2023/03/22 08:55:34;;;;;;;6.22;5.72;;;23.90;70.30;;;;;;6059283;28;95066;-67
2023/03/22 08:58:37;;;;;;;6.30;5.70;;;23.90;70.20;;;;;;6075586;28;94275;-67
2023/03/22 09:01:40;;;;;;;6.53;5.60;;;23.90;70.20;;;;;;6066112;28;94010;-67
2023/03/22 09:04:42;;;;;;;6.10;5.60;;;23.90;70.30;;;;;;6081325;28;93765;-67
2023/03/22 09:07:44;;;;;;;5.85;5.35;;;23.90;70.30;;;;;;6080496;28;94167;-67
2023/03/22 09:10:50;;;;;;;5.47;4.97;;;23.90;70.30;;;;;;6082581;28;94218;-67
2023/03/22 09:13:52;;;;;;;5.78;5.28;;;23.90;70.30;;;;;;6082989;28;94566;-67
2023/03/22 09:16:56;;;;;;;6.05;5.50;;;23.90;70.30;;;;;;6081238;28;93368;-67
2023/03/22 09:19:58;;;;;;;5.78;5.28;;;23.90;70.30;;;;;;6080952;28;94551;-67
2023/03/22 09:23:00;;;;;;;5.97;5.47;;;23.90;70.30;;;;;;6071274;28;93540;-67
2023/03/22 09:26:03;;;;;;;6.20;5.60;;;23.90;70.40;;;;;;6060649;28;95129;-67
2023/03/22 09:29:05;;;;;;;5.85;5.35;;;23.90;70.40;;;;;;6079252;28;94133;-67
2023/03/22 09:32:08;;;;;;;5.75;5.25;;;23.90;70.40;;;;;;6062825;28;94197;-67
2023/03/22 09:35:10;;;;;;;6.00;5.40;;;23.90;70.30;;;;;;6061255;28;94446;-67
2023/03/22 09:38:12;;;;;;;5.70;5.20;;;23.90;70.40;;;;;;6062978;28;94114;-67
2023/03/22 09:41:18;;;;;;;5.50;5.00;;;23.90;70.40;;;;;;6065022;28;94126;-67
2023/03/22 09:44:25;;;;;;;5.47;4.97;;;23.90;70.40;;;;;;6065781;28;94109;-67
2023/03/22 09:47:33;;;;;;;5.50;5.00;;;23.90;70.40;;;;;;6064352;28;93515;-67
2023/03/22 09:50:43;;;;;;;5.70;5.20;;;23.90;70.40;;;;;;6071113;28;94114;-67
2023/03/22 09:53:45;;;;;;;5.82;5.32;;;23.90;70.50;;;;;;6059715;28;94121;-67
2023/03/22 09:56:54;;;;;;;5.50;5.00;;;23.90;70.40;;;;;;6057775;28;95079;-67
2023/03/22 10:00:01;;;;;;;5.75;5.25;;;23.90;70.30;;;;;;6064427;28;94516;-67
2023/03/22 10:03:16;;;;;;;5.53;5.03;;;23.90;70.40;;;;;;6079608;28;94133;-68
2023/03/22 10:06:21;;;;;;;5.43;4.93;;;23.90;70.40;;;;;;6063822;28;94157;-68
2023/03/22 10:09:29;;;;;;;5.45;4.95;;;24.00;70.50;;;;;;6059463;28;94199;-67
2023/03/22 10:12:37;;;;;;;5.47;4.97;;;23.90;70.40;;;;;;6059318;28;94201;-68
2023/03/22 10:15:42;;;;;;;5.68;4.95;;;23.90;70.40;;;;;;6051495;28;94223;-67
2023/03/22 10:18:49;;;;;;;5.72;5.13;;;23.90;70.40;;;;;;6070077;28;93404;-68
2023/03/22 10:21:53;;;;;;;4.82;4.43;;;23.90;70.50;;;;;;6070842;28;94109;-68
2023/03/22 10:24:57;;;;;;;4.90;4.50;;;23.90;70.50;;;;;;6059969;28;94129;-67
2023/03/22 10:27:59;;;;;;;5.25;4.78;;;24.00;70.60;;;;;;6053283;28;95099;-68
2023/03/22 10:31:01;;;;;;;4.93;4.53;;;24.00;70.60;;;;;;6064620;28;94477;-67
2023/03/22 10:34:07;;;;;;;5.28;4.78;;;24.00;70.50;;;;;;6071903;28;94121;-68
2023/03/22 10:37:13;;;;;;;5.03;4.63;;;24.00;70.60;;;;;;6069058;28;94476;-68
2023/03/22 10:40:20;;;;;;;4.70;4.30;;;24.00;70.50;;;;;;6057885;28;94078;-67
2023/03/22 10:43:25;;;;;;;4.90;4.50;;;24.00;71.40;;;;;;6058835;28;94187;-67
2023/03/22 10:46:32;;;;;;;4.97;4.47;;;24.00;70.50;;;;;;6070341;28;94123;-67
2023/03/22 10:49:39;;;;;;;4.63;4.22;;;24.00;70.50;;;;;;6061655;28;93680;-67
2023/03/22 10:52:47;;;;;;;4.63;4.22;;;24.00;70.40;;;;;;6061014;28;94223;-67
2023/03/22 10:55:49;;;;;;;4.90;4.30;;;24.00;70.50;;;;;;6069026;28;94158;-67
2023/03/22 10:58:52;;;;;;;4.40;4.00;;;24.00;70.50;;;;;;6060280;28;95065;-68
2023/03/22 11:01:55;;;;;;;4.68;4.28;;;24.00;70.50;;;;;;6067012;28;94125;-67
2023/03/22 11:05:00;;;;;;;4.65;4.25;;;24.00;70.50;;;;;;6071393;28;94185;-67
2023/03/22 11:08:03;;;;;;;4.63;4.22;;;24.10;70.50;;;;;;6058526;28;94486;-68
2023/03/22 11:11:07;;;;;;;4.57;4.18;;;24.00;70.50;;;;;;6058171;28;94272;-67
2023/03/22 11:14:15;;;;;;;4.63;4.22;;;24.10;70.60;;;;;;6058597;28;94156;-67
2023/03/22 11:17:20;;;;;;;4.35;3.95;;;24.00;70.50;;;;;;6057868;28;94131;-67
2023/03/22 11:20:23;;;;;;;4.82;4.38;;;24.00;70.40;;;;;;6072610;28;93815;-68
2023/03/22 11:23:27;;;;;;;4.05;3.75;;;24.00;70.30;;;;;;6064690;28;94075;-68
2023/03/22 11:26:32;;;;;;;4.50;3.83;;;24.00;70.40;;;;;;6057853;28;93886;-67
2023/03/22 11:29:44;;;;;;;4.18;3.80;;;24.10;70.30;;;;;;6065829;28;95196;-67
2023/03/22 11:32:46;;;;;;;4.32;3.92;;;24.00;70.20;;;;;;6070450;28;94372;-68
2023/03/22 11:35:55;;;;;;;4.28;3.80;;;24.10;70.20;;;;;;6064325;28;94258;-68
2023/03/22 11:38:59;;;;;;;4.13;3.72;;;24.10;70.30;;;;;;6063498;28;94121;-68
2023/03/22 11:42:05;;;;;;;4.47;4.07;;;24.00;70.30;;;;;;6057472;28;94408;-68
2023/03/22 11:45:08;;;;;;;4.40;4.00;;;24.00;70.20;;;;;;6051928;28;94261;-67
2023/03/22 11:48:15;;;;;;;4.75;4.25;;;24.00;70.30;;;;;;6056053;28;94188;-68
2023/03/22 11:51:28;;;;;;;4.47;4.07;;;24.10;70.30;;;;;;6060185;28;93401;-68
2023/03/22 11:54:34;;;;;;;3.90;3.60;;;24.00;70.20;;;;;;6046382;28;92976;-67
2023/03/22 11:57:37;;;;;;;4.50;4.10;;;24.00;70.10;;;;;;6079607;28;94206;-68
2023/03/22 12:00:41;;;;;;;4.00;3.67;;;24.10;70.20;;;;;;6075589;28;95381;-67
2023/03/22 12:03:45;;;;;;;3.80;3.50;;;24.10;70.10;;;;;;6058444;28;93987;-68
2023/03/22 12:06:52;;;;;;;3.70;3.40;;;24.10;70.30;;;;;;6056689;28;94267;-67
2023/03/22 12:10:00;;;;;;;3.85;3.55;;;24.10;70.20;;;;;;6056798;28;95020;-68
2023/03/22 12:13:07;;;;;;;3.90;3.60;;;24.00;70.10;;;;;;6076454;28;94085;-67
2023/03/22 12:16:14;;;;;;;3.60;3.30;;;24.10;70.20;;;;;;6062606;28;93406;-68
2023/03/22 12:19:36;;;;;;;3.60;3.30;;;24.10;70.20;;;;;;6069792;28;92819;-67
2023/03/22 12:22:46;;;;;;;3.90;3.45;;;24.10;70.30;;;;;;6065778;28;93450;-67
2023/03/22 12:25:53;;;;;;;3.85;3.50;;;24.10;70.20;;;;;;6066931;28;94518;-68
2023/03/22 12:28:59;;;;;;;4.00;3.35;;;24.10;70.20;;;;;;6055836;28;94033;-68
2023/03/22 12:32:07;;;;;;;4.18;3.78;;;24.10;70.20;;;;;;6067505;28;95490;-67
2023/03/22 12:35:15;;;;;;;3.95;3.55;;;24.10;70.30;;;;;;6065301;28;94538;-68
2023/03/22 12:38:28;;;;;;;3.78;3.47;;;24.10;70.30;;;;;;6072192;28;94003;-67
2023/03/22 12:41:35;;;;;;;4.10;3.70;;;24.10;70.30;;;;;;6070031;28;94243;-68
2023/03/22 12:44:42;;;;;;;3.90;3.60;;;24.10;70.50;;;;;;6059645;28;94192;-66
2023/03/22 12:47:47;;;;;;;3.78;3.47;;;24.10;70.40;;;;;;6049123;28;94427;-68
2023/03/22 12:50:53;;;;;;;3.50;3.20;;;24.10;70.30;;;;;;6058114;28;94362;-67
2023/03/22 12:53:59;;;;;;;3.50;3.20;;;24.10;70.30;;;;;;6061476;28;93409;-67
2023/03/22 12:57:02;;;;;;;3.42;3.13;;;24.10;70.30;;;;;;6053037;28;94725;-68
2023/03/22 13:00:12;;;;;;;3.58;3.28;;;24.10;70.30;;;;;;6055515;28;94216;-67
2023/03/22 13:03:25;;;;;;;3.35;3.05;;;24.10;70.20;;;;;;6061586;28;95150;-68
2023/03/22 13:06:34;;;;;;;3.38;3.05;;;24.10;70.30;;;;;;6081242;28;94388;-68
2023/03/22 13:09:40;;;;;;;3.60;3.30;;;24.10;70.30;;;;;;6076550;28;92165;-68
2023/03/22 13:13:12;;;;;;;3.30;3.00;;;24.10;70.30;;;;;;6073909;28;94093;-68
2023/03/22 13:16:30;;;;;;;3.42;3.13;;;24.10;70.40;;;;;;6069994;28;94116;-67
2023/03/22 13:19:35;;;;;;;3.45;3.15;;;24.10;70.40;;;;;;6061214;28;92958;-68
2023/03/22 13:22:59;;;;;;;3.45;3.15;;;24.10;70.30;;;;;;6066325;28;94931;-68
2023/03/22 13:26:05;;;;;;;3.55;3.17;;;24.10;70.30;;;;;;6050473;28;93410;-68
2023/03/22 13:29:16;;;;;;;3.05;2.85;;;24.10;70.30;;;;;;6069569;28;94226;-67
2023/03/22 13:32:32;;;;;;;3.25;2.95;;;24.10;70.40;;;;;;6065602;28;94409;-67
2023/03/22 13:35:43;;;;;;;3.13;2.83;;;24.10;70.30;;;;;;6066054;28;95423;-67
2023/03/22 13:38:54;;;;;;;3.20;2.90;;;24.10;70.30;;;;;;6071207;28;93970;-67
2023/03/22 13:42:08;;;;;;;2.80;2.60;;;24.10;70.30;;;;;;6059481;28;92982;-67
2023/03/22 13:45:30;;;;;;;3.33;2.95;;;24.10;70.30;;;;;;6056378;28;94123;-67
2023/03/22 13:48:42;;;;;;;2.95;2.75;;;24.10;70.30;;;;;;6066469;28;94291;-68
2023/03/22 13:51:45;;;;;;;3.42;3.08;;;24.00;70.20;;;;;;6074088;28;93954;-68
2023/03/22 13:54:51;;;;;;;3.55;3.25;;;24.00;70.30;;;;;;6058109;28;94002;-67
2023/03/22 13:57:58;;;;;;;3.20;2.90;;;24.10;70.30;;;;;;6050939;28;93702;-67
2023/03/22 14:01:01;;;;;;;3.20;2.90;;;24.10;70.30;;;;;;6068667;28;93767;-68
2023/03/22 14:04:08;;;;;;;3.53;3.22;;;24.00;70.30;;;;;;6058769;28;94275;-67
2023/03/22 14:07:21;;;;;;;3.22;2.92;;;24.00;70.10;;;;;;6059542;28;95325;-68
2023/03/22 14:10:27;;;;;;;2.97;2.75;;;24.10;70.30;;;;;;6061224;28;94192;-67
2023/03/22 14:13:34;;;;;;;3.08;2.80;;;24.10;70.20;;;;;;6071154;28;94018;-67
2023/03/22 14:16:41;;;;;;;2.90;2.70;;;24.10;70.10;;;;;;6060160;28;93092;-68
2023/03/22 14:19:43;;;;;;;2.88;2.63;;;24.10;70.10;;;;;;6071332;28;96945;-67
2023/03/22 14:22:50;;;;;;;3.20;2.90;;;24.10;70.10;;;;;;6068781;28;94417;-68
2023/03/22 14:26:05;;;;;;;2.85;2.65;;;24.10;70.10;;;;;;6072629;28;94093;-68
2023/03/22 14:29:14;;;;;;;2.90;2.60;;;24.10;70.10;;;;;;6056232;28;93325;-67
2023/03/22 14:32:20;;;;;;;2.88;2.67;;;24.10;70.10;;;;;;6065220;28;94294;-67
2023/03/22 14:35:31;;;;;;;2.70;2.50;;;24.10;70.20;;;;;;6059763;28;94239;-67
2023/03/22 14:38:37;;;;;;;3.10;2.72;;;24.10;70.30;;;;;;6058503;28;95044;-67
2023/03/22 14:41:56;;;;;;;2.90;2.70;;;24.00;70.20;;;;;;6069028;28;94132;-68
2023/03/22 14:45:05;;;;;;;2.40;2.20;;;24.10;70.30;;;;;;6070111;28;94181;-67
2023/03/22 14:48:16;;;;;;;2.80;2.60;;;24.00;71.00;;;;;;6081937;28;94123;-68
2023/03/22 14:51:22;;;;;;;2.70;2.50;;;24.00;70.10;;;;;;6059064;28;94060;-68
2023/03/22 14:54:29;;;;;;;2.80;2.60;;;24.00;70.10;;;;;;6059478;28;94650;-67
2023/03/22 14:57:34;;;;;;;2.63;2.42;;;24.00;70.10;;;;;;6059980;28;94059;-68
2023/03/22 15:00:39;;;;;;;2.53;2.33;;;24.10;70.10;;;;;;6068015;28;93490;-68
2023/03/22 15:03:43;;;;;;;2.60;2.40;;;24.00;70.10;;;;;;6068507;28;94126;-68
2023/03/22 15:06:48;;;;;;;2.53;2.33;;;24.00;70.10;;;;;;6076033;28;94243;-68
2023/03/22 15:09:50;;;;;;;2.40;2.20;;;24.10;70.30;;;;;;6051496;28;95062;-68
2023/03/22 15:12:54;;;;;;;2.50;2.30;;;24.10;70.30;;;;;;6067958;28;95071;-68
2023/03/22 15:15:58;;;;;;;2.58;2.38;;;24.10;70.20;;;;;;6075452;28;94213;-68
2023/03/22 15:19:02;;;;;;;2.50;2.30;;;24.00;70.10;;;;;;6068443;28;94581;-68
2023/03/22 15:22:06;;;;;;;2.50;2.30;;;24.00;70.10;;;;;;6068390;28;94078;-68
2023/03/22 15:25:13;;;;;;;2.40;2.20;;;24.00;70.00;;;;;;6064309;28;94039;-67
2023/03/22 15:28:18;;;;;;;2.50;2.30;;;24.10;70.20;;;;;;6061296;28;94135;-68
2023/03/22 15:31:24;;;;;;;2.30;2.10;;;24.10;70.10;;;;;;6059738;28;93351;-67
2023/03/22 15:34:30;;;;;;;2.38;2.17;;;24.00;70.10;;;;;;6069740;28;94210;-68
2023/03/22 15:37:33;;;;;;;2.95;2.75;;;24.00;70.00;;;;;;6051265;28;94047;-68
2023/03/22 15:40:38;;;;;;;2.45;2.25;;;24.10;70.10;;;;;;6053531;28;95019;-68
2023/03/22 15:43:40;;;;;;;2.55;2.35;;;24.00;70.10;;;;;;6056793;28;94119;-68
2023/03/22 15:46:58;;;;;;;2.33;2.13;;;24.00;70.10;;;;;;6058091;28;93071;-68
2023/03/22 15:50:04;;;;;;;2.85;2.55;;;24.00;70.10;;;;;;6055491;28;93050;-67
2023/03/22 15:53:06;;;;;;;2.30;2.10;;;24.00;70.10;;;;;;6068087;28;94171;-67
2023/03/22 15:56:27;;;;;;;2.20;2.00;;;24.00;70.00;;;;;;6081209;28;94436;-68
2023/03/22 15:59:30;;;;;;;2.30;2.10;;;24.00;70.00;;;;;;6070130;28;94097;-68